Time,TemperatureF,DewpointF,PressureIn,WindDirection,WindDirectionDegrees,WindSpeedMPH,WindSpeedGustMPH,Humidity,HourlyPrecipIn,Conditions,Clouds,dailyrainin,SoftwareType,DateUTC
2013-02-24 00:00:00,43.0,-99.9,-100.00,North,357,3.0,3.0,-999,-99.99,,,-99.99,,2013-02-24 08:00:00,
2013-02-24 00:54:00,43.0,-99.9,-100.00,North,357,3.0,3.0,-999,-99.99,,,-99.99,,2013-02-24 08:54:00,
2013-02-24 02:40:00,39.0,-99.9,-100.00,North,0,8.0,14.0,-999,-99.99,,,-99.99,,2013-02-24 10:40:00,
2013-02-24 03:00:00,38.0,-99.9,-100.00,NNE,18,7.0,10.0,-999,-99.99,,,-99.99,,2013-02-24 11:00:00,
2013-02-24 03:01:00,39.0,-99.9,-100.00,NW,326,6.0,10.0,-999,-99.99,,,-99.99,,2013-02-24 11:01:00,
2013-02-24 03:11:00,39.0,-99.9,-100.00,NW,326,6.0,10.0,-999,-99.99,,,-99.99,,2013-02-24 11:11:00,
2013-02-24 03:22:00,39.0,-99.9,-100.00,North,0,8.0,14.0,-999,-99.99,,,-99.99,,2013-02-24 11:22:00,
2013-02-24 03:32:00,39.0,-99.9,-100.00,North,0,8.0,14.0,-999,-99.99,,,-99.99,,2013-02-24 11:32:00,
2013-02-24 03:50:00,39.0,-99.9,-100.00,NNW,330,15.0,20.0,-999,-99.99,,,-99.99,,2013-02-24 11:50:00,
2013-02-24 03:53:00,38.0,-99.9,-100.00,NNE,18,7.0,10.0,-999,-99.99,,,-99.99,,2013-02-24 11:53:00,
2013-02-24 04:33:00,39.0,-99.9,-100.00,NNW,330,15.0,20.0,-999,-99.99,,,-99.99,,2013-02-24 12:33:00,
2013-02-24 04:46:00,39.0,-99.9,-100.00,NNW,330,15.0,20.0,-999,-99.99,,,-99.99,,2013-02-24 12:46:00,
2013-02-24 05:05:00,35.0,-99.9,-100.00,NNW,331,13.0,15.0,-999,-99.99,,,-99.99,,2013-02-24 13:05:00,
2013-02-24 05:56:00,35.0,-99.9,-100.00,NNW,331,13.0,15.0,-999,-99.99,,,-99.99,,2013-02-24 13:56:00,
2013-02-24 07:32:00,36.0,-99.9,-100.00,North,3,6.0,19.0,-999,-99.99,,,-99.99,,2013-02-24 15:32:00,
2013-02-24 07:43:00,36.0,-99.9,-100.00,North,3,6.0,19.0,-999,-99.99,,,-99.99,,2013-02-24 15:43:00,
2013-02-24 10:32:00,43.0,-99.9,-100.00,NE,39,14.0,17.0,-999,-99.99,,,-99.99,,2013-02-24 18:32:00,
2013-02-24 10:42:00,43.0,-99.9,-100.00,NE,39,14.0,17.0,-999,-99.99,,,-99.99,,2013-02-24 18:42:00,
2013-02-24 10:52:00,43.0,-99.9,-100.00,NNE,12,10.0,19.0,-999,-99.99,,,-99.99,,2013-02-24 18:52:00,
2013-02-24 11:02:00,45.0,-99.9,-100.00,NNE,17,10.0,22.0,-999,-99.99,,,-99.99,,2013-02-24 19:02:00,
2013-02-24 11:12:00,45.0,-99.9,-100.00,NNE,17,10.0,22.0,-999,-99.99,,,-99.99,,2013-02-24 19:12:00,
2013-02-24 11:22:00,45.0,-99.9,-100.00,NNE,17,10.0,22.0,-999,-99.99,,,-99.99,,2013-02-24 19:22:00,
2013-02-24 12:02:00,46.0,-99.9,-100.00,NNE,27,14.0,21.0,-999,-99.99,,,-99.99,,2013-02-24 20:02:00,
2013-02-24 12:11:00,46.0,-99.9,-100.00,NNE,27,14.0,21.0,-999,-99.99,,,-99.99,,2013-02-24 20:11:00,
2013-02-24 12:52:00,47.0,-99.9,-100.00,NNE,13,9.0,20.0,-999,-99.99,,,-99.99,,2013-02-24 20:52:00,
2013-02-24 13:02:00,47.0,-99.9,-100.00,NNE,13,9.0,20.0,-999,-99.99,,,-99.99,,2013-02-24 21:02:00,
2013-02-24 15:32:00,53.0,-99.9,-100.00,ENE,58,2.0,8.0,-999,-99.99,,,-99.99,,2013-02-24 23:32:00,
2013-02-24 15:42:00,53.0,-99.9,-100.00,ENE,58,2.0,8.0,-999,-99.99,,,-99.99,,2013-02-24 23:42:00,
2013-02-24 16:00:00,52.0,-99.9,-100.00,NW,309,9.0,9.0,-999,-99.99,,,-99.99,,2013-02-25 00:00:00,
2013-02-24 16:30:00,53.0,-99.9,-100.00,NNE,16,6.0,7.0,-999,-99.99,,,-99.99,,2013-02-25 00:30:00,
2013-02-24 16:52:00,52.0,-99.9,-100.00,NW,309,9.0,9.0,-999,-99.99,,,-99.99,,2013-02-25 00:52:00,
2013-02-24 17:22:00,53.0,-99.9,-100.00,NNE,16,6.0,7.0,-999,-99.99,,,-99.99,,2013-02-25 01:22:00,
2013-02-24 20:02:00,41.0,-99.9,-100.00,West,278,6.0,6.0,-999,-99.99,,,-99.99,,2013-02-25 04:02:00,
2013-02-24 20:11:00,41.0,-99.9,-100.00,West,278,6.0,6.0,-999,-99.99,,,-99.99,,2013-02-25 04:11:00,
2013-02-24 21:52:00,39.0,-99.9,-100.00,WSW,253,7.0,7.0,-999,-99.99,,,-99.99,,2013-02-25 05:52:00,
2013-02-24 22:03:00,37.0,-99.9,-100.00,WSW,257,7.0,8.0,-999,-99.99,,,-99.99,,2013-02-25 06:03:00,
2013-02-24 22:12:00,37.0,-99.9,-100.00,WSW,257,7.0,8.0,-999,-99.99,,,-99.99,,2013-02-25 06:12:00,